createdAt,value
2019-03-30T00:00:25.884Z,10.10
2019-03-30T00:01:25.857Z,10.10
2019-03-30T00:02:25.839Z,10.06
2019-03-30T00:03:25.835Z,10.04
2019-03-30T00:04:25.832Z,10.02
2019-03-30T00:05:25.829Z,10.06
2019-03-30T00:06:25.797Z,10.02
2019-03-30T00:07:25.795Z,10.00
2019-03-30T00:08:25.771Z,9.98
2019-03-30T00:09:25.767Z,9.98
2019-03-30T00:10:25.789Z,9.97
2019-03-30T00:11:25.738Z,9.98
2019-03-30T00:12:25.728Z,10.00
2019-03-30T00:13:25.717Z,9.97
2019-03-30T00:14:25.718Z,9.97
2019-03-30T00:15:25.780Z,9.97
2019-03-30T00:16:25.695Z,10.00
2019-03-30T00:17:25.671Z,9.90
2019-03-30T00:18:25.667Z,10.01
2019-03-30T00:19:34.744Z,9.93
2019-03-30T00:20:26.668Z,9.91
2019-03-30T00:21:25.633Z,9.95
2019-03-30T00:22:25.628Z,9.86
2019-03-30T00:23:25.608Z,9.91
2019-03-30T00:24:25.619Z,9.85
2019-03-30T00:25:25.620Z,9.91
2019-03-30T00:26:25.590Z,9.95
2019-03-30T00:27:25.562Z,9.91
2019-03-30T00:28:25.561Z,9.94
2019-03-30T00:29:25.537Z,9.88
2019-03-30T00:30:25.571Z,9.91
2019-03-30T00:31:25.518Z,9.91
2019-03-30T00:32:25.506Z,9.91
2019-03-30T00:33:25.496Z,9.88
2019-03-30T00:34:25.511Z,9.82
2019-03-30T00:35:25.481Z,9.86
2019-03-30T00:36:25.484Z,9.82
2019-03-30T00:37:25.454Z,9.83
2019-03-30T00:38:25.435Z,9.90
2019-03-30T00:39:25.429Z,9.88
2019-03-30T00:40:25.432Z,9.85
2019-03-30T00:41:25.439Z,9.83
2019-03-30T00:42:25.395Z,9.85
2019-03-30T00:43:25.399Z,9.86
2019-03-30T00:44:25.375Z,9.86
2019-03-30T00:45:25.364Z,9.83
2019-03-30T00:46:25.371Z,9.86
2019-03-30T00:47:25.347Z,9.90
2019-03-30T00:48:25.330Z,9.90
2019-03-30T00:49:25.317Z,9.75
2019-03-30T00:50:25.304Z,9.76
2019-03-30T00:51:25.313Z,9.73
2019-03-30T00:52:25.298Z,9.73
2019-03-30T00:53:25.274Z,9.77
2019-03-30T00:54:25.271Z,9.77
2019-03-30T00:55:25.256Z,9.72
2019-03-30T00:56:25.257Z,9.73
2019-03-30T00:57:25.243Z,9.65
2019-03-30T00:58:25.782Z,9.65
2019-03-30T00:59:25.207Z,9.70
2019-03-30T01:00:25.213Z,9.65
2019-03-30T01:01:25.219Z,9.64
2019-03-30T01:02:25.170Z,9.75
2019-03-30T01:03:25.163Z,9.75
2019-03-30T01:04:25.155Z,9.65
2019-03-30T01:05:25.149Z,9.70
2019-03-30T01:06:25.167Z,9.67
2019-03-30T01:07:25.116Z,9.67
2019-03-30T01:08:25.108Z,9.65
2019-03-30T01:09:25.098Z,9.59
2019-03-30T01:10:25.086Z,9.72
2019-03-30T01:11:25.076Z,9.65
2019-03-30T01:12:25.102Z,9.55
2019-03-30T01:13:25.053Z,9.69
2019-03-30T01:14:25.048Z,9.58
2019-03-30T01:15:25.030Z,9.58
2019-03-30T01:16:25.020Z,9.57
2019-03-30T01:17:25.019Z,9.52
2019-03-30T01:18:25.003Z,9.49
2019-03-30T01:19:24.989Z,9.52
2019-03-30T01:20:24.977Z,9.51
2019-03-30T01:21:24.965Z,9.44
2019-03-30T01:22:24.977Z,9.46
2019-03-30T01:23:24.936Z,9.47
2019-03-30T01:24:24.941Z,9.49
2019-03-30T01:25:24.921Z,9.52
2019-03-30T01:26:24.906Z,9.51
2019-03-30T01:27:24.922Z,9.51
2019-03-30T01:28:24.890Z,9.55
2019-03-30T01:29:24.873Z,9.49
2019-03-30T01:30:24.904Z,9.43
2019-03-30T01:31:24.895Z,9.43
2019-03-30T01:32:24.857Z,9.51
2019-03-30T01:33:24.835Z,9.47
2019-03-30T01:34:24.829Z,9.51
2019-03-30T01:35:24.943Z,9.46
2019-03-30T01:36:24.803Z,9.44
2019-03-30T01:37:24.811Z,9.51
2019-03-30T01:38:24.813Z,9.46
2019-03-30T01:39:24.764Z,9.43
2019-03-30T01:40:24.752Z,9.42
2019-03-30T01:41:24.764Z,9.46
2019-03-30T01:42:24.799Z,9.51
2019-03-30T01:43:24.716Z,9.52
2019-03-30T01:44:24.709Z,9.46
2019-03-30T01:45:24.716Z,9.44
2019-03-30T01:46:24.683Z,9.49
2019-03-30T01:47:24.699Z,9.43
2019-03-30T01:48:24.662Z,9.44
2019-03-30T01:49:24.651Z,9.44
2019-03-30T01:50:24.660Z,9.51
2019-03-30T01:51:24.636Z,9.44
2019-03-30T01:52:24.653Z,9.47
2019-03-30T01:53:24.663Z,9.42
2019-03-30T01:54:24.604Z,9.49
2019-03-30T01:55:24.583Z,9.42
2019-03-30T01:56:24.578Z,9.44
2019-03-30T01:57:24.616Z,9.44
2019-03-30T01:58:24.552Z,9.44
2019-03-30T01:59:24.848Z,9.43
2019-03-30T02:00:24.532Z,9.43
2019-03-30T02:01:24.521Z,9.43
2019-03-30T02:02:24.525Z,9.47
2019-03-30T02:03:24.523Z,9.40
2019-03-30T02:04:24.489Z,9.47
2019-03-30T02:05:24.474Z,9.37
2019-03-30T02:06:24.476Z,9.44
2019-03-30T02:07:24.460Z,9.39
2019-03-30T02:08:24.472Z,9.37
2019-03-30T02:09:24.479Z,9.32
2019-03-30T02:10:24.423Z,9.34
2019-03-30T02:11:24.414Z,9.44
2019-03-30T02:12:24.404Z,9.39
2019-03-30T02:13:24.407Z,9.37
2019-03-30T02:14:24.394Z,9.32
2019-03-30T02:15:24.386Z,9.34
2019-03-30T02:16:24.359Z,9.39
2019-03-30T02:17:24.349Z,9.32
2019-03-30T02:18:24.356Z,9.34
2019-03-30T02:19:24.323Z,9.40
2019-03-30T02:20:30.694Z,9.39
2019-03-30T02:21:25.295Z,9.37
2019-03-30T02:22:24.290Z,9.33
2019-03-30T02:23:24.299Z,9.34
2019-03-30T02:24:24.268Z,9.40
2019-03-30T02:25:24.267Z,9.29
2019-03-30T02:26:24.252Z,9.32
2019-03-30T02:27:24.234Z,9.28
2019-03-30T02:28:24.234Z,9.36
2019-03-30T02:29:24.207Z,9.15
2019-03-30T02:30:24.202Z,9.29
2019-03-30T02:31:24.188Z,9.25
2019-03-30T02:32:24.216Z,9.26
2019-03-30T02:33:24.195Z,9.22
2019-03-30T02:34:24.153Z,9.32
2019-03-30T02:35:26.458Z,9.28
2019-03-30T02:36:24.146Z,9.28
2019-03-30T02:37:24.121Z,9.14
2019-03-30T02:38:24.143Z,9.21
2019-03-30T02:39:24.108Z,9.24
2019-03-30T02:40:24.091Z,9.19
2019-03-30T02:41:24.091Z,9.15
2019-03-30T02:42:24.079Z,9.19
2019-03-30T02:43:24.092Z,9.24
2019-03-30T02:44:24.098Z,9.16
2019-03-30T02:45:24.040Z,9.21
2019-03-30T02:46:24.038Z,9.22
2019-03-30T02:47:24.024Z,9.15
2019-03-30T02:48:24.018Z,9.16
2019-03-30T02:49:23.995Z,9.19
2019-03-30T02:50:23.982Z,9.22
2019-03-30T02:51:23.978Z,9.16
2019-03-30T02:52:23.968Z,9.16
2019-03-30T02:53:23.969Z,9.15
2019-03-30T02:54:23.942Z,9.14
2019-03-30T02:55:23.930Z,9.05
2019-03-30T02:56:23.914Z,9.05
2019-03-30T02:57:23.902Z,9.10
2019-03-30T02:58:23.907Z,8.96
2019-03-30T02:59:24.023Z,8.95
2019-03-30T03:00:23.868Z,8.99
2019-03-30T03:01:23.859Z,8.96
2019-03-30T03:02:23.848Z,8.95
2019-03-30T03:03:23.868Z,8.95
2019-03-30T03:04:23.824Z,8.91
2019-03-30T03:05:23.823Z,8.98
2019-03-30T03:06:23.801Z,8.96
2019-03-30T03:07:23.787Z,8.90
2019-03-30T03:08:23.813Z,8.99
2019-03-30T03:09:23.777Z,8.95
2019-03-30T03:10:23.773Z,8.90
2019-03-30T03:11:23.768Z,8.81
2019-03-30T03:12:23.735Z,8.90
2019-03-30T03:13:23.751Z,8.93
2019-03-30T03:14:23.712Z,8.96
2019-03-30T03:15:23.721Z,8.88
2019-03-30T03:16:27.118Z,8.98
2019-03-30T03:17:23.697Z,8.84
2019-03-30T03:18:23.724Z,8.93
2019-03-30T03:19:23.669Z,8.98
2019-03-30T03:20:23.661Z,8.90
2019-03-30T03:21:23.641Z,8.96
2019-03-30T03:22:23.622Z,8.98
2019-03-30T03:23:23.666Z,8.91
2019-03-30T03:24:23.599Z,8.96
2019-03-30T03:25:23.595Z,8.91
2019-03-30T03:26:23.588Z,8.93
2019-03-30T03:27:23.582Z,8.84
2019-03-30T03:28:23.579Z,8.91
2019-03-30T03:29:23.544Z,8.91
2019-03-30T03:30:23.541Z,8.87
2019-03-30T03:31:23.531Z,8.87
2019-03-30T03:32:23.512Z,8.81
2019-03-30T03:33:23.520Z,8.90
2019-03-30T03:34:23.524Z,8.77
2019-03-30T03:35:23.484Z,8.80
2019-03-30T03:36:23.468Z,8.80
2019-03-30T03:37:23.459Z,8.82
2019-03-30T03:38:23.459Z,8.80
2019-03-30T03:39:23.458Z,8.80
2019-03-30T03:40:23.433Z,8.77
2019-03-30T03:41:23.412Z,8.82
2019-03-30T03:42:23.417Z,8.78
2019-03-30T03:43:23.406Z,8.82
2019-03-30T03:44:23.403Z,8.78
2019-03-30T03:45:23.368Z,8.77
2019-03-30T03:46:23.356Z,8.78
2019-03-30T03:47:23.345Z,8.80
2019-03-30T03:48:23.343Z,8.75
2019-03-30T03:49:23.349Z,8.77
2019-03-30T03:50:23.319Z,8.70
2019-03-30T03:51:25.984Z,8.72
2019-03-30T03:52:23.291Z,8.72
2019-03-30T03:53:23.277Z,8.64
2019-03-30T03:54:23.295Z,8.75
2019-03-30T03:55:23.258Z,8.75
2019-03-30T03:56:23.265Z,8.75
2019-03-30T03:57:23.236Z,8.73
2019-03-30T03:58:23.224Z,8.70
2019-03-30T03:59:23.242Z,8.64
2019-03-30T04:00:23.207Z,8.75
2019-03-30T04:01:23.208Z,8.72
2019-03-30T04:02:23.174Z,8.67
2019-03-30T04:03:23.173Z,8.73
2019-03-30T04:04:23.189Z,8.67
2019-03-30T04:05:23.148Z,8.72
2019-03-30T04:06:23.137Z,8.72
2019-03-30T04:07:23.147Z,8.70
2019-03-30T04:08:23.121Z,8.69
2019-03-30T04:09:23.122Z,8.64
2019-03-30T04:10:23.094Z,8.62
2019-03-30T04:11:23.081Z,8.64
2019-03-30T04:12:23.075Z,8.70
2019-03-30T04:13:23.088Z,8.69
2019-03-30T04:14:23.092Z,8.63
2019-03-30T04:15:23.045Z,8.64
2019-03-30T04:16:23.030Z,8.57
2019-03-30T04:17:23.022Z,8.62
2019-03-30T04:18:23.012Z,8.57
2019-03-30T04:19:23.053Z,8.59
2019-03-30T04:20:22.983Z,8.62
2019-03-30T04:21:43.898Z,8.57
2019-03-30T04:22:23.962Z,8.64
2019-03-30T04:23:22.961Z,8.57
2019-03-30T04:24:22.963Z,8.64
2019-03-30T04:25:22.935Z,8.49
2019-03-30T04:26:22.913Z,8.54
2019-03-30T04:27:22.919Z,8.51
2019-03-30T04:28:22.895Z,8.48
2019-03-30T04:29:22.901Z,8.48
2019-03-30T04:30:22.895Z,8.48
2019-03-30T04:31:22.856Z,8.48
2019-03-30T04:32:22.839Z,8.42
2019-03-30T04:33:22.841Z,8.47
2019-03-30T04:34:22.861Z,8.47
2019-03-30T04:35:22.826Z,8.44
2019-03-30T04:36:22.799Z,8.29
2019-03-30T04:37:22.805Z,8.31
2019-03-30T04:38:22.784Z,8.38
2019-03-30T04:39:23.095Z,8.39
2019-03-30T04:40:22.773Z,8.36
2019-03-30T04:41:22.741Z,8.36
2019-03-30T04:42:22.732Z,8.30
2019-03-30T04:43:22.731Z,8.38
2019-03-30T04:44:22.739Z,8.31
2019-03-30T04:45:22.701Z,8.30
2019-03-30T04:46:22.698Z,8.26
2019-03-30T04:47:22.704Z,8.26
2019-03-30T04:48:22.662Z,8.24
2019-03-30T04:49:22.654Z,8.24
2019-03-30T04:50:22.664Z,8.23
2019-03-30T04:51:22.631Z,8.31
2019-03-30T04:52:22.627Z,8.24
2019-03-30T04:53:22.615Z,8.26
2019-03-30T04:54:22.598Z,8.20
2019-03-30T04:55:22.604Z,8.31
2019-03-30T04:56:22.575Z,8.30
2019-03-30T04:57:23.104Z,8.30
2019-03-30T04:58:22.574Z,8.18
2019-03-30T04:59:22.543Z,8.24
2019-03-30T05:00:22.554Z,8.26
2019-03-30T05:01:22.528Z,8.26
2019-03-30T05:02:22.511Z,8.26
2019-03-30T05:03:22.521Z,8.23
2019-03-30T05:04:22.490Z,8.15
2019-03-30T05:05:22.496Z,8.29
2019-03-30T05:06:22.463Z,8.26
2019-03-30T05:07:22.464Z,8.27
2019-03-30T05:08:22.444Z,8.27
2019-03-30T05:09:22.427Z,8.31
2019-03-30T05:10:22.434Z,8.36
2019-03-30T05:11:22.401Z,8.30
2019-03-30T05:12:22.397Z,8.23
2019-03-30T05:13:22.383Z,8.29
2019-03-30T05:14:22.374Z,8.29
2019-03-30T05:15:22.396Z,8.30
2019-03-30T05:16:22.350Z,8.27
2019-03-30T05:17:22.335Z,8.26
2019-03-30T05:18:22.338Z,8.27
2019-03-30T05:19:22.324Z,8.23
2019-03-30T05:20:22.319Z,8.26
2019-03-30T05:21:22.294Z,8.31
2019-03-30T05:22:22.300Z,8.24
2019-03-30T05:23:22.276Z,8.26
2019-03-30T05:24:22.257Z,8.31
2019-03-30T05:25:22.265Z,8.31
2019-03-30T05:26:22.237Z,8.23
2019-03-30T05:27:22.220Z,8.27
2019-03-30T05:28:22.212Z,8.24
2019-03-30T05:29:22.213Z,8.26
2019-03-30T05:30:22.211Z,8.26
2019-03-30T05:31:22.188Z,8.29
2019-03-30T05:32:22.172Z,8.26
2019-03-30T05:33:22.158Z,8.23
2019-03-30T05:34:22.144Z,8.23
2019-03-30T05:35:22.173Z,8.24
2019-03-30T05:36:22.142Z,8.26
2019-03-30T05:37:22.106Z,8.27
2019-03-30T05:38:22.100Z,8.30
2019-03-30T05:39:22.090Z,8.26
2019-03-30T05:40:22.078Z,8.31
2019-03-30T05:41:22.080Z,8.27
2019-03-30T05:42:22.060Z,8.29
2019-03-30T05:43:22.042Z,8.21
2019-03-30T05:44:22.040Z,8.24
2019-03-30T05:45:22.016Z,8.24
2019-03-30T05:46:22.024Z,8.30
2019-03-30T05:47:22.002Z,8.34
2019-03-30T05:48:22.006Z,8.30
2019-03-30T05:49:21.969Z,8.31
2019-03-30T05:50:21.966Z,8.29
2019-03-30T05:51:21.979Z,8.29
2019-03-30T05:52:26.858Z,8.38
2019-03-30T05:53:22.945Z,8.31
2019-03-30T05:54:21.912Z,8.34
2019-03-30T05:55:21.909Z,8.36
2019-03-30T05:56:21.944Z,8.31
2019-03-30T05:57:21.889Z,8.33
2019-03-30T05:58:21.874Z,8.30
2019-03-30T05:59:21.876Z,8.36
2019-03-30T06:00:21.852Z,8.38
2019-03-30T06:01:21.887Z,8.38
2019-03-30T06:02:21.833Z,8.38
2019-03-30T06:03:21.814Z,8.33
2019-03-30T06:04:21.840Z,8.38
2019-03-30T06:05:21.793Z,8.39
2019-03-30T06:06:21.809Z,8.51
2019-03-30T06:07:21.773Z,8.48
2019-03-30T06:08:21.792Z,8.59
2019-03-30T06:09:21.750Z,8.62
2019-03-30T06:10:21.737Z,8.69
2019-03-30T06:11:21.784Z,8.77
2019-03-30T06:12:21.718Z,8.78
2019-03-30T06:13:21.709Z,8.81
2019-03-30T06:14:21.712Z,8.90
2019-03-30T06:15:21.682Z,9.02
2019-03-30T06:16:21.695Z,9.14
2019-03-30T06:17:21.718Z,9.10
2019-03-30T06:18:21.892Z,9.19
2019-03-30T06:19:21.653Z,9.18
2019-03-30T06:20:21.629Z,9.32
2019-03-30T06:21:21.650Z,9.21
2019-03-30T06:22:21.611Z,9.26
2019-03-30T06:23:21.799Z,9.36
2019-03-30T06:24:21.577Z,9.42
2019-03-30T06:25:21.604Z,9.49
2019-03-30T06:26:21.628Z,9.47
2019-03-30T06:27:21.558Z,9.52
2019-03-30T06:28:21.576Z,9.58
2019-03-30T06:29:21.527Z,9.61
2019-03-30T06:30:21.525Z,9.58
2019-03-30T06:31:21.531Z,9.59
2019-03-30T06:32:21.495Z,9.49
2019-03-30T06:33:21.488Z,9.49
2019-03-30T06:34:21.475Z,9.47
2019-03-30T06:35:21.462Z,9.44
2019-03-30T06:36:22.046Z,9.37
2019-03-30T06:37:21.447Z,9.40
2019-03-30T06:38:21.439Z,9.32
2019-03-30T06:39:21.431Z,9.36
2019-03-30T06:40:21.407Z,9.37
2019-03-30T06:41:21.466Z,9.32
2019-03-30T06:42:21.389Z,9.32
2019-03-30T06:43:21.377Z,9.33
2019-03-30T06:44:21.381Z,9.34
2019-03-30T06:45:21.359Z,9.37
2019-03-30T06:46:21.347Z,9.33
2019-03-30T06:47:21.369Z,9.24
2019-03-30T06:48:21.401Z,9.28
2019-03-30T06:49:21.393Z,9.34
2019-03-30T06:50:21.304Z,9.26
2019-03-30T06:51:21.286Z,9.29
2019-03-30T06:52:21.321Z,9.34
2019-03-30T06:53:21.262Z,9.34
2019-03-30T06:54:21.249Z,9.37
2019-03-30T06:55:21.248Z,9.37
2019-03-30T06:56:21.247Z,9.43
2019-03-30T06:57:21.260Z,9.33
2019-03-30T06:58:21.215Z,9.46
2019-03-30T06:59:21.197Z,9.37
2019-03-30T07:00:21.204Z,9.46
2019-03-30T07:01:21.186Z,9.44
2019-03-30T07:02:21.194Z,9.44
2019-03-30T07:03:21.153Z,9.49
2019-03-30T07:04:21.143Z,9.51
2019-03-30T07:05:21.132Z,9.55
2019-03-30T07:06:21.144Z,9.49
2019-03-30T07:07:21.142Z,9.49
2019-03-30T07:08:21.104Z,9.52
2019-03-30T07:09:21.107Z,9.55
2019-03-30T07:10:21.075Z,9.55
2019-03-30T07:11:21.599Z,9.58
2019-03-30T07:12:21.075Z,9.59
2019-03-30T07:13:21.050Z,9.64
2019-03-30T07:14:21.080Z,9.69
2019-03-30T07:15:21.050Z,9.65
2019-03-30T07:16:21.014Z,9.70
2019-03-30T07:17:21.115Z,9.73
2019-03-30T07:18:20.996Z,9.85
2019-03-30T07:19:21.066Z,9.75
2019-03-30T07:20:20.976Z,9.88
2019-03-30T07:21:20.971Z,9.82
2019-03-30T07:22:21.012Z,9.93
2019-03-30T07:23:20.956Z,9.91
2019-03-30T07:24:20.958Z,9.88
2019-03-30T07:25:20.947Z,9.93
2019-03-30T07:26:20.948Z,9.98
2019-03-30T07:27:20.904Z,9.95
2019-03-30T07:28:20.890Z,9.95
2019-03-30T07:29:20.917Z,10.06
2019-03-30T07:30:20.864Z,10.12
2019-03-30T07:31:20.879Z,10.09
2019-03-30T07:32:20.854Z,10.16
2019-03-30T07:33:20.823Z,10.16
2019-03-30T07:34:20.843Z,10.19
2019-03-30T07:35:20.806Z,10.23
2019-03-30T07:36:20.808Z,10.30
2019-03-30T07:37:20.823Z,10.34
2019-03-30T07:38:20.779Z,10.34
2019-03-30T07:39:20.784Z,10.38
2019-03-30T07:40:20.811Z,10.46
2019-03-30T07:41:20.748Z,10.48
2019-03-30T07:42:20.783Z,10.56
2019-03-30T07:43:20.757Z,10.59
2019-03-30T07:44:20.778Z,10.57
2019-03-30T07:45:20.727Z,10.57
2019-03-30T07:46:20.677Z,10.70
2019-03-30T07:47:20.688Z,10.74
2019-03-30T07:48:20.677Z,10.74
2019-03-30T07:49:20.763Z,10.82
2019-03-30T07:50:20.641Z,10.82
2019-03-30T07:51:20.630Z,10.95
2019-03-30T07:52:20.640Z,10.92
2019-03-30T07:53:26.544Z,10.95
2019-03-30T07:54:21.672Z,11.00
2019-03-30T07:55:20.578Z,11.04
2019-03-30T07:56:20.568Z,11.05
2019-03-30T07:57:20.688Z,11.10
2019-03-30T07:58:20.561Z,11.14
2019-03-30T07:59:20.559Z,11.22
2019-03-30T08:00:20.534Z,11.29
2019-03-30T08:01:20.518Z,11.33
2019-03-30T08:02:20.520Z,11.33
2019-03-30T08:03:20.503Z,11.43
2019-03-30T08:04:20.495Z,11.48
2019-03-30T08:05:20.490Z,11.59
2019-03-30T08:06:20.463Z,11.61
2019-03-30T08:07:20.449Z,11.65
2019-03-30T08:08:20.454Z,11.68
2019-03-30T08:09:20.435Z,11.76
2019-03-30T08:10:20.417Z,11.90
2019-03-30T08:11:20.399Z,11.88
2019-03-30T08:12:20.400Z,11.95
2019-03-30T08:13:20.407Z,12.05
2019-03-30T08:14:20.367Z,12.02
2019-03-30T08:15:20.376Z,12.14
2019-03-30T08:16:20.338Z,12.09
2019-03-30T08:17:20.332Z,12.05
2019-03-30T08:18:20.335Z,12.20
2019-03-30T08:19:21.846Z,12.21
2019-03-30T08:20:20.303Z,12.21
2019-03-30T08:21:20.318Z,12.24
2019-03-30T08:22:20.277Z,12.28
2019-03-30T08:23:20.299Z,12.33
2019-03-30T08:24:20.249Z,12.32
2019-03-30T08:25:20.272Z,12.33
2019-03-30T08:26:20.308Z,12.38
2019-03-30T08:27:20.277Z,12.50
2019-03-30T08:28:20.210Z,12.50
2019-03-30T08:29:20.235Z,12.51
2019-03-30T08:30:20.189Z,12.51
2019-03-30T08:31:20.176Z,12.54
2019-03-30T08:32:20.167Z,12.55
2019-03-30T08:33:20.152Z,12.65
2019-03-30T08:34:20.169Z,12.73
2019-03-30T08:35:20.168Z,12.72
2019-03-30T08:36:20.113Z,12.76
2019-03-30T08:37:20.131Z,12.83
2019-03-30T08:38:20.111Z,12.80
2019-03-30T08:39:20.103Z,12.96
2019-03-30T08:40:20.070Z,12.97
2019-03-30T08:41:20.144Z,13.05
2019-03-30T08:42:20.114Z,13.15
2019-03-30T08:43:20.049Z,13.16
2019-03-30T08:44:20.066Z,13.13
2019-03-30T08:45:20.117Z,13.24
2019-03-30T08:46:20.066Z,13.30
2019-03-30T08:47:19.999Z,13.37
2019-03-30T08:48:21.120Z,13.46
2019-03-30T08:49:20.187Z,13.57
2019-03-30T08:50:19.966Z,13.75
2019-03-30T08:51:20.887Z,13.75
2019-03-30T08:52:20.049Z,13.88
2019-03-30T08:53:19.927Z,13.93
2019-03-30T08:54:19.926Z,14.05
2019-03-30T08:55:19.931Z,14.11
2019-03-30T08:56:19.908Z,14.19
2019-03-30T08:57:20.017Z,14.26
2019-03-30T08:58:19.870Z,14.30
2019-03-30T08:59:19.876Z,14.41
2019-03-30T09:00:19.882Z,14.37
2019-03-30T09:01:19.849Z,14.47
2019-03-30T09:02:19.895Z,14.44
2019-03-30T09:03:19.822Z,14.51
2019-03-30T09:04:19.816Z,14.48
2019-03-30T09:05:19.813Z,14.50
2019-03-30T09:06:19.803Z,14.58
2019-03-30T09:07:19.808Z,14.65
2019-03-30T09:08:19.766Z,14.70
2019-03-30T09:09:19.759Z,14.78
2019-03-30T09:10:19.763Z,14.82
2019-03-30T09:11:19.733Z,14.85
2019-03-30T09:12:19.747Z,14.91
2019-03-30T09:13:19.708Z,14.97
2019-03-30T09:14:19.694Z,14.99
2019-03-30T09:15:19.723Z,14.97
2019-03-30T09:16:19.701Z,15.03
2019-03-30T09:17:19.670Z,15.15
2019-03-30T09:18:19.654Z,15.15
2019-03-30T09:19:19.650Z,15.21
2019-03-30T09:20:19.656Z,15.37
2019-03-30T09:21:19.769Z,15.37
2019-03-30T09:22:19.613Z,15.37
2019-03-30T09:23:19.604Z,15.44
2019-03-30T09:24:19.580Z,15.50
2019-03-30T09:25:19.608Z,15.64
2019-03-30T09:26:19.560Z,15.60
2019-03-30T09:27:19.546Z,15.60
2019-03-30T09:28:19.567Z,15.64
2019-03-30T09:29:19.531Z,15.65
2019-03-30T09:30:19.534Z,15.79
2019-03-30T09:31:19.526Z,15.76
2019-03-30T09:32:19.500Z,15.91
2019-03-30T09:33:19.496Z,15.85
2019-03-30T09:34:19.499Z,15.88
2019-03-30T09:35:19.486Z,15.87
2019-03-30T09:36:19.481Z,15.94
2019-03-30T09:37:19.441Z,15.88
2019-03-30T09:38:19.443Z,15.94
2019-03-30T09:39:19.619Z,15.90
2019-03-30T09:40:19.418Z,16.05
2019-03-30T09:41:19.484Z,16.01
2019-03-30T09:42:19.389Z,16.05
2019-03-30T09:43:19.378Z,16.10
2019-03-30T09:44:19.379Z,16.10
2019-03-30T09:45:19.355Z,16.20
2019-03-30T09:46:19.376Z,16.31
2019-03-30T09:47:19.331Z,16.41
2019-03-30T09:48:19.314Z,16.43
2019-03-30T09:49:19.307Z,16.47
2019-03-30T09:50:19.310Z,16.56
2019-03-30T09:51:19.354Z,16.56
2019-03-30T09:52:19.278Z,16.64
2019-03-30T09:53:19.257Z,16.72
2019-03-30T09:54:23.971Z,16.83
2019-03-30T09:55:20.270Z,16.90
2019-03-30T09:56:19.257Z,16.91
2019-03-30T09:57:19.215Z,17.01
2019-03-30T09:58:19.243Z,17.04
2019-03-30T09:59:19.191Z,16.99
2019-03-30T10:00:19.181Z,17.09
2019-03-30T10:01:19.200Z,17.24
2019-03-30T10:02:19.179Z,17.35
2019-03-30T10:03:19.180Z,17.49
2019-03-30T10:04:19.132Z,17.71
2019-03-30T10:05:19.126Z,17.80
2019-03-30T10:06:19.132Z,17.94
2019-03-30T10:07:19.115Z,18.03
2019-03-30T10:08:19.102Z,18.20
2019-03-30T10:09:19.079Z,18.28
2019-03-30T10:10:19.066Z,18.41
2019-03-30T10:11:19.406Z,18.66
2019-03-30T10:12:19.052Z,18.98
2019-03-30T10:13:19.053Z,19.41
2019-03-30T10:14:19.061Z,19.96
2019-03-30T10:15:19.077Z,20.66
2019-03-30T10:16:19.030Z,21.45
2019-03-30T10:17:18.989Z,22.23
2019-03-30T10:18:19.019Z,23.15
2019-03-30T10:19:18.975Z,24.07
2019-03-30T10:20:18.979Z,24.92
2019-03-30T10:21:18.975Z,25.63
2019-03-30T10:22:18.927Z,26.22
2019-03-30T10:23:18.934Z,26.77
2019-03-30T10:24:18.917Z,27.17
2019-03-30T10:25:18.929Z,27.34
2019-03-30T10:26:18.926Z,27.51
2019-03-30T10:27:18.907Z,27.99
2019-03-30T10:28:18.882Z,28.29
2019-03-30T10:29:18.864Z,28.58
2019-03-30T10:30:18.852Z,28.75
2019-03-30T10:31:18.865Z,28.81
2019-03-30T10:32:18.830Z,29.10
2019-03-30T10:33:18.815Z,29.32
2019-03-30T10:34:18.806Z,29.21
2019-03-30T10:35:18.800Z,29.31
2019-03-30T10:36:18.803Z,29.17
2019-03-30T10:37:18.785Z,28.63
2019-03-30T10:38:18.764Z,27.97
2019-03-30T10:39:18.764Z,27.22
2019-03-30T10:40:20.908Z,26.89
2019-03-30T10:41:18.767Z,26.70
2019-03-30T10:42:18.738Z,26.78
2019-03-30T10:43:18.718Z,27.00
2019-03-30T10:44:18.700Z,27.45
2019-03-30T10:45:18.693Z,27.77
2019-03-30T10:46:18.698Z,28.08
2019-03-30T10:47:18.669Z,28.51
2019-03-30T10:48:18.675Z,28.86
2019-03-30T10:49:18.649Z,29.14
2019-03-30T10:50:18.656Z,29.28
2019-03-30T10:51:18.653Z,29.48
2019-03-30T10:52:18.619Z,29.47
2019-03-30T10:53:18.607Z,29.21
2019-03-30T10:54:18.606Z,29.62
2019-03-30T10:55:18.583Z,30.31
2019-03-30T10:56:18.592Z,30.85
2019-03-30T10:57:18.608Z,31.41
2019-03-30T10:58:18.589Z,31.52
2019-03-30T10:59:18.546Z,31.94
2019-03-30T11:00:18.572Z,32.30
2019-03-30T11:01:18.561Z,32.38
2019-03-30T11:02:18.525Z,32.69
2019-03-30T11:03:18.568Z,32.84
2019-03-30T11:04:18.563Z,32.91
2019-03-30T11:05:18.518Z,32.99
2019-03-30T11:06:18.516Z,33.04
2019-03-30T11:07:18.601Z,33.18
2019-03-30T11:08:18.511Z,33.21
2019-03-30T11:09:18.521Z,33.11
2019-03-30T11:10:18.452Z,32.80
2019-03-30T11:11:18.454Z,32.95
2019-03-30T11:12:18.445Z,33.20
2019-03-30T11:13:18.408Z,33.40
2019-03-30T11:14:18.399Z,33.44
2019-03-30T11:15:18.389Z,33.50
2019-03-30T11:16:18.390Z,33.43
2019-03-30T11:17:19.514Z,33.31
2019-03-30T11:18:18.363Z,33.36
2019-03-30T11:19:18.368Z,33.46
2019-03-30T11:20:18.347Z,33.76
2019-03-30T11:21:18.353Z,33.87
2019-03-30T11:22:18.316Z,33.99
2019-03-30T11:23:18.319Z,34.18
2019-03-30T11:24:18.312Z,34.34
2019-03-30T11:25:18.292Z,34.36
2019-03-30T11:26:18.321Z,34.51
2019-03-30T11:27:18.347Z,34.59
2019-03-30T11:28:18.269Z,34.77
2019-03-30T11:29:18.253Z,34.84
2019-03-30T11:30:18.256Z,34.94
2019-03-30T11:31:18.280Z,35.23
2019-03-30T11:32:18.229Z,35.13
2019-03-30T11:33:18.219Z,35.48
2019-03-30T11:34:18.206Z,35.67
2019-03-30T11:35:18.201Z,35.95
2019-03-30T11:36:18.815Z,36.19
2019-03-30T11:37:18.194Z,36.58
2019-03-30T11:38:18.169Z,36.93
2019-03-30T11:39:18.157Z,37.02
2019-03-30T11:40:18.162Z,37.26
2019-03-30T11:41:18.136Z,37.24
2019-03-30T11:42:18.152Z,37.33
2019-03-30T11:43:18.119Z,36.99
2019-03-30T11:44:18.105Z,37.15
2019-03-30T11:45:18.101Z,37.18
2019-03-30T11:46:18.093Z,37.04
2019-03-30T11:47:18.142Z,36.90
2019-03-30T11:48:18.071Z,36.83
2019-03-30T11:49:18.141Z,36.73
2019-03-30T11:50:18.051Z,36.56
2019-03-30T11:51:18.047Z,36.34
2019-03-30T11:52:18.065Z,36.37
2019-03-30T11:53:18.024Z,36.25
2019-03-30T11:54:18.025Z,36.39
2019-03-30T11:55:22.178Z,36.37
2019-03-30T11:56:18.013Z,36.41
2019-03-30T11:57:17.979Z,35.90
2019-03-30T11:58:18.025Z,35.87
2019-03-30T11:59:17.983Z,35.65
2019-03-30T12:00:17.963Z,35.39
2019-03-30T12:01:17.948Z,35.33
2019-03-30T12:02:27.775Z,35.43
2019-03-30T12:03:18.957Z,35.05
2019-03-30T12:04:17.918Z,34.84
2019-03-30T12:05:17.901Z,34.72
2019-03-30T12:06:17.906Z,34.63
2019-03-30T12:07:17.894Z,34.48
2019-03-30T12:08:17.871Z,34.30
2019-03-30T12:09:17.905Z,34.37
2019-03-30T12:10:17.875Z,34.54
2019-03-30T12:11:17.839Z,34.47
2019-03-30T12:12:17.833Z,34.37
2019-03-30T12:13:17.832Z,34.39
2019-03-30T12:14:17.833Z,34.47
2019-03-30T12:15:17.803Z,34.61
2019-03-30T12:16:17.841Z,34.63
2019-03-30T12:17:17.784Z,34.26
2019-03-30T12:18:17.800Z,34.17
2019-03-30T12:19:17.793Z,34.39
2019-03-30T12:20:17.748Z,34.45
2019-03-30T12:21:17.743Z,34.49
2019-03-30T12:22:17.738Z,34.54
2019-03-30T12:23:17.732Z,34.40
2019-03-30T12:24:17.747Z,34.18
2019-03-30T12:25:17.704Z,33.81
2019-03-30T12:26:17.692Z,33.54
2019-03-30T12:27:17.677Z,33.17
2019-03-30T12:28:17.674Z,32.98
2019-03-30T12:29:17.662Z,32.77
2019-03-30T12:30:17.680Z,32.56
2019-03-30T12:31:17.644Z,32.60
2019-03-30T12:32:17.630Z,32.50
2019-03-30T12:33:17.619Z,32.23
2019-03-30T12:34:17.610Z,32.19
2019-03-30T12:35:17.632Z,31.91
2019-03-30T12:36:17.592Z,31.58
2019-03-30T12:37:17.578Z,31.24
2019-03-30T12:38:17.570Z,30.81
2019-03-30T12:39:17.559Z,30.40
2019-03-30T12:40:17.551Z,30.00
2019-03-30T12:41:17.567Z,29.50
2019-03-30T12:42:17.527Z,29.01
2019-03-30T12:43:17.513Z,28.44
2019-03-30T12:44:17.497Z,27.97
2019-03-30T12:45:17.496Z,27.71
2019-03-30T12:46:17.517Z,27.18
2019-03-30T12:47:17.467Z,26.86
2019-03-30T12:48:17.456Z,26.60
2019-03-30T12:49:17.483Z,26.44
2019-03-30T12:50:17.443Z,26.18
2019-03-30T12:51:17.442Z,25.88
2019-03-30T12:52:17.483Z,25.59
2019-03-30T12:53:17.410Z,25.40
2019-03-30T12:54:17.400Z,25.15
2019-03-30T12:55:17.391Z,25.03
2019-03-30T12:56:17.396Z,24.77
2019-03-30T12:57:17.363Z,24.65
2019-03-30T12:58:17.369Z,24.37
2019-03-30T12:59:17.354Z,24.32
2019-03-30T13:00:17.338Z,24.08
2019-03-30T13:01:17.347Z,23.95
2019-03-30T13:02:17.301Z,23.84
2019-03-30T13:03:17.299Z,23.86
2019-03-30T13:04:17.294Z,23.78
2019-03-30T13:05:17.273Z,23.74
2019-03-30T13:06:17.335Z,23.56